Meteo Giornale » Osservazioni meteo Italia » Gioia Del Colle

ore: 10:55 - Osservazioni Meteo Gioia Del Colle
Lat. 40° 46' N Lon. 16° 56' E Alt. 345 metri s.l.m.

poco_nuvoloso Europe/Rome

27 °C

Poco Nuvoloso

Temp. 24 Ore

22 °C

32 °C

Sud/Sud-Est

24 Km/h

Dew point 22 °C

Umidità 74 %

Visibilità  9 Km

Il sole sorge alle ore 05:51

Il sole tramonta alle ore 20:05

Data e Ora Cielo e Fenomeni T °C DP °C Um. % Pres. hPa Vis. km Vento km/h
Oggi h: 10:55 poco_nuvoloso Poco Nuvoloso 27 22 74 1008 9 S/SE 24
Oggi h: 08:55 sereno Sereno 26 20 69 1008 9 SE 14.8
Oggi h: 07:55 sereno Sereno 24 20 78 1007 9 S 7.4
Oggi h: 06:55 sereno Sereno 23 21 88 1007 9 N 3.7
Oggi h: 05:55 sereno Sereno 22 20 88 1007 9 N 5.5
Oggi h: 04:55 poco_nuvoloso Poco Nuvoloso 23 19 78 1007 9 E 7.4
Oggi h: 03:55 nuvoloso Nuvoloso 23 22 94 1007 7 S/SO 13
Oggi h: 02:55 nuvoloso Nuvoloso 23 22 94 1007 6 S 11.1
Oggi h: 01:55 nuvoloso Nuvoloso 23 23 100 1007 6 S 14.8
Oggi h: 00:55 foschia Foschia 23 23 100 1007 5 S 11.1
Ieri h: 23:55 nuvoloso Nuvoloso 24 24 100 1007 6 S 20.3
Ieri h: 21:55 nuvoloso Nuvoloso 25 24 94 1007 7 S 25.9
Ieri h: 20:55 nuvoloso Nuvoloso 25 25 100 1007 7 S/SE 29.6
Ieri h: 19:55 nuvoloso Nuvoloso 26 26 100 1006 7 S/SE 27.8
Ieri h: 18:55 nuvoloso Nuvoloso 26 26 100 1007 8 S 31.5
Ieri h: 16:55 poco_nuvoloso Poco Nuvoloso 30 21 58 1007 10 S/SE 38.8
Ieri h: 15:55 poco_nuvoloso Poco Nuvoloso 31 21 55 1007 10 S/SE 37
Ieri h: 14:55 poco_nuvoloso Poco Nuvoloso 31 22 58 1009 10 S 35.2
Ieri h: 13:55 poco_nuvoloso Poco Nuvoloso 32 20 49 1009 10 S 31.5
Ieri h: 12:55 sereno Sereno 32 22 55 1010 10 S 29.6